Etusivu
METAR-TAF:

METAR-TAF

Lentoasemat :

Porin lentoasema

Pori, Suomi

Leveyspiiri: 61-28N, Pituuspiiri: 021-48E, korkeus merenpinnasta: 13 m

Tämänhetkinen sää

Tämä raportti tehtiin 34 minuuttia sitten, kello 23.50 UTC
Tuuli 1 kn eri suunnista
Lämpötila -2°C
Kosteus 93%
Ilmanpaine 1035 hPa
Näkyvyys 10 km tai enemmän
ei pilviä alle 1500 m:ssä eikä cumulonimbus-pilviä

METAR: EFPO 202350Z AUTO VRB01KT CAVOK M02/M03 Q1035

Aika: 02:24 (00:24 UTC)

Sääennuste

Tämä raportti tehtiin 12 tuntia ja 24 minuuttia sitten, kello 12.00 UTC
Ennuste voimassa 20. päivästä klo 12 UTC - 20. päivään klo 15 UTC
Tuuli 5 kn lännestä/luoteesta
Näkyvyys 10 km tai enemmän
Pilvistä 1300 ft:n korkeudessa
Tulossa
20. päivästä klo 12 UTC - 20. päivään klo 14 UTC
Hajonneita pilviä 1500 ft:n korkeudessa

TAF: EFPO 201200Z 2012/2015 30005KT 9999 OVC013 BECMG 2012/2014 BKN015

Säähavainnot ja -ennusteet yli 4000 lentoasemalta (METAR- ja TAF-raportit).

Käytössä olevat sääasemat on merkitty karttaan keltaisilla ja punaisilla pisteillä.

Aseta hiiri pisteen päälle nähdäksesi sääaseman nimen.

Klikkaa sitten nähdäksesi säähavainnot ja -ennusteet.

Kartan vaihtaminen: klikkaa mustalla rastilla varustettuja vihreitä pisteitä, niin voit zoomata sisään; viivalla varustettua vihreää pistettä, niin voit zoomata ulos tai vihreitä nuolia, niin pääset viereisille kartoille.


METAR-TAF: